Active alerts

Dallas County
  Details for Dallas County 
Denton County
  Details for Denton County 
Tarrant County
  Details for Tarrant County 

Flower Mound more information Flower Mound


Coppell more information Coppell


I-35W at Alliance Airport more information I-35W at Alliance Airport


FM114 @ DFW North Entrance more information FM114 @ DFW North Entrance



Nearby METAR Reports

   
KCVG - Florence, KY
Updated: Sep 22 2017 11:52 pm
Clear  
Clear  
   Wind: Calm
Wind: Calm
Temperature: 71.6°F
Dew Point: 66.2°F
Humidity: 83%
Barometer: 30.08 inHg
Clouds: Clear
Visibility: 9 mi
Cloud details: Clear
KCVG 230452Z 00000KT 9SM CLR 22/19 A3008 RMK AO2 SLP173 T02220194 403170183
KBOS - Boston, MA
Updated: Sep 22 2017 11:54 pm
Light Drizzle, Overcast  
Light Drizzle, Overcast  
   Wind: NNE 17.3 mph<br />Gust to 17.3 mph
Wind: NNE 17.3 mph
Gust to 17.3 mph
Temperature: 62.6°F
Dew Point: 60.8°F
Humidity: 94%
Barometer: 29.99 inHg
Clouds: Overcast
Visibility: 10 mi
Cloud details: Overcast 305 m
KBOS 230454Z 02015G24KT 10SM -DZ OVC010 17/16 A2999 RMK AO2 SLP155 P0000 T01670156 401720139
KRDU - Raliegh, NC
Updated: Sep 22 2017 11:51 pm
Mostly Cloudy  
Mostly Cloudy  
   Wind: Calm
Wind: Calm
Temperature: 69.8°F
Dew Point: 66.2°F
Humidity: 88%
Barometer: 30.03 inHg
Clouds: Mostly Cloudy
Visibility: 10 mi
Cloud details: Mostly Cloudy 5182 m
KRDU 230451Z 00000KT 10SM BKN170 21/19 A3003 RMK AO2 SLP165 T02110189 403170161
KFDW - Grapevine, TX
Updated: Sep 23 2017 12:15 am
Clear  
Clear  
   Wind: Calm
Wind: Calm
Temperature: 68°F
Dew Point: 64.4°F
Humidity: 88%
Barometer: 30.03 inHg
Clouds: Clear
Visibility: 10 mi
Cloud details: Clear
KFDW 230515Z AUTO 00000KT 10SM CLR 20/18 A3003 RMK AO1
  

Script developed by  Saratoga-weather.org Adapted for the template by  Weerstation Leuven

You find our weather info also at:

WeatherCloud

Weather Underground

Mid South Weather Network

WeatherlinkIP

Citizen Weather Observer Program (CWOP)

HAMweather, WeatherForYou, PWS Weather

Equipment we use:

Weather-station
Davis Vantage Pro 2

Weather-program
Weather Display

Weather-server
Intel NUC

Provider
ehost.com

Davis Vantage Pro 2

Weather Display

Intel NUC

ehost.com